Bryce Canyon Natl Park, Utah
Current Conditions -  °F | °C
As of 3:53 AM on Saturday 20 Dec 2014 (Local Time) from KBCE Reporting Station
Clear Clear  
Wind Chill:   Ceiling: Unl
Heat Index: 16°   Visibility: 10mi
Dew Point: 13°   Wind: 6mph
Humidity: 88%   Direction: 230°SW
Pressure: 30.14"   Gusts: NA
Location:  37.58°N, 112.17°W
Report Text: KBCE 201053Z AUTO 23005KT 10SM CLR M09/M11 A3014 RMK AO2 SLP200 I1000 T10891106
Loading
Personal Weather Stations






























Interactive Weather Map New forecast layout! Learn more

10-Day Weather Forecast

Advertisements
Track Severe Weather on mobile